createdAt,value
2022-12-13T00:00:01.064Z,19
2022-12-13T00:01:01.045Z,17
2022-12-13T00:03:01.107Z,15
2022-12-13T00:04:01.137Z,16
2022-12-13T00:05:01.050Z,14
2022-12-13T00:06:01.046Z,15
2022-12-13T00:09:01.070Z,14
2022-12-13T00:10:01.046Z,16
2022-12-13T00:14:01.116Z,15
2022-12-13T00:15:01.091Z,14
2022-12-13T00:16:01.048Z,16
2022-12-13T00:17:01.071Z,15
2022-12-13T00:19:01.048Z,17
2022-12-13T00:20:01.046Z,16
2022-12-13T00:22:01.046Z,17
2022-12-13T00:23:01.049Z,16
2022-12-13T00:24:01.061Z,15
2022-12-13T00:25:01.070Z,17
2022-12-13T00:26:01.047Z,16
2022-12-13T00:28:01.044Z,17
2022-12-13T00:30:01.051Z,15
2022-12-13T00:31:13.712Z,17
2022-12-13T00:35:01.088Z,18
2022-12-13T00:37:01.053Z,16
2022-12-13T00:40:01.054Z,15
2022-12-13T00:42:01.076Z,16
2022-12-13T00:43:01.053Z,18
2022-12-13T00:45:01.051Z,18
2022-12-13T00:47:01.054Z,17
2022-12-13T00:48:01.052Z,16
2022-12-13T00:50:01.056Z,17
2022-12-13T00:51:01.055Z,16
2022-12-13T00:53:01.123Z,14
2022-12-13T00:54:01.055Z,15
2022-12-13T00:55:01.066Z,16
2022-12-13T00:56:01.054Z,17
2022-12-13T00:58:01.085Z,18
2022-12-13T01:00:01.055Z,16
2022-12-13T01:01:01.074Z,15
2022-12-13T01:02:01.062Z,14
2022-12-13T01:06:14.601Z,15
2022-12-13T01:08:01.065Z,16
2022-12-13T01:09:01.055Z,17
2022-12-13T01:10:01.064Z,18
2022-12-13T01:11:01.055Z,16
2022-12-13T01:12:01.057Z,15
2022-12-13T01:13:01.069Z,14
2022-12-13T01:14:01.104Z,15
2022-12-13T01:15:01.054Z,16
2022-12-13T01:16:01.056Z,17
2022-12-13T01:17:01.090Z,18
2022-12-13T01:18:01.057Z,19
2022-12-13T01:19:01.054Z,17
2022-12-13T01:20:01.063Z,15
2022-12-13T01:21:01.055Z,13
2022-12-13T01:22:01.054Z,14
2022-12-13T01:23:01.056Z,16
2022-12-13T01:25:01.055Z,18
2022-12-13T01:26:01.056Z,20
2022-12-13T01:27:01.058Z,19
2022-12-13T01:28:01.058Z,18
2022-12-13T01:29:01.058Z,19
2022-12-13T01:30:01.079Z,18
2022-12-13T01:31:01.082Z,17
2022-12-13T01:33:01.186Z,16
2022-12-13T01:34:01.058Z,15
2022-12-13T01:35:01.089Z,17
2022-12-13T01:36:01.059Z,16
2022-12-13T01:37:01.059Z,15
2022-12-13T01:38:01.060Z,18
2022-12-13T01:39:01.059Z,17
2022-12-13T01:40:01.059Z,16
2022-12-13T01:42:01.059Z,17
2022-12-13T01:43:01.060Z,14
2022-12-13T01:44:01.354Z,16
2022-12-13T01:45:01.060Z,15
2022-12-13T01:46:01.113Z,14
2022-12-13T01:48:01.067Z,13
2022-12-13T01:49:01.064Z,14
2022-12-13T01:50:01.063Z,13
2022-12-13T01:51:01.062Z,14
2022-12-13T01:52:01.063Z,13
2022-12-13T01:53:01.061Z,14
2022-12-13T01:54:01.062Z,13
2022-12-13T01:55:03.487Z,14
2022-12-13T01:56:01.064Z,16
2022-12-13T01:57:01.184Z,17
2022-12-13T01:58:01.060Z,18
2022-12-13T02:00:01.069Z,18
2022-12-13T02:01:01.131Z,16
2022-12-13T02:02:01.288Z,15
2022-12-13T02:05:01.229Z,16
2022-12-13T02:07:01.066Z,17
2022-12-13T02:08:01.163Z,18
2022-12-13T02:09:01.065Z,20
2022-12-13T02:10:01.068Z,19
2022-12-13T02:11:01.066Z,21
2022-12-13T02:13:01.130Z,20
2022-12-13T02:14:01.067Z,18
2022-12-13T02:15:01.333Z,18
2022-12-13T02:16:01.278Z,16
2022-12-13T02:17:01.069Z,18
2022-12-13T02:19:01.097Z,19
2022-12-13T02:21:01.068Z,18
2022-12-13T02:22:01.069Z,16
2022-12-13T02:23:01.070Z,15
2022-12-13T02:25:01.105Z,16
2022-12-13T02:26:01.071Z,17
2022-12-13T02:27:01.124Z,18
2022-12-13T02:29:01.135Z,16
2022-12-13T02:30:01.095Z,17
2022-12-13T02:31:01.116Z,16
2022-12-13T02:32:01.078Z,14
2022-12-13T02:34:01.133Z,17
2022-12-13T02:35:01.096Z,16
2022-12-13T02:36:01.068Z,17
2022-12-13T02:37:01.069Z,15
2022-12-13T02:39:01.069Z,13
2022-12-13T02:40:01.077Z,14
2022-12-13T02:41:01.152Z,15
2022-12-13T02:42:01.072Z,17
2022-12-13T02:43:01.070Z,19
2022-12-13T02:44:01.713Z,20
2022-12-13T02:45:01.073Z,20
2022-12-13T02:47:01.097Z,19
2022-12-13T02:51:01.097Z,18
2022-12-13T02:53:01.175Z,19
2022-12-13T02:54:01.080Z,18
2022-12-13T02:55:01.076Z,17
2022-12-13T02:56:01.078Z,18
2022-12-13T02:58:01.104Z,16
2022-12-13T02:59:01.080Z,15
2022-12-13T03:00:01.078Z,14
2022-12-13T03:02:09.991Z,16
2022-12-13T03:03:01.202Z,17
2022-12-13T03:05:01.076Z,19
2022-12-13T03:08:01.162Z,20
2022-12-13T03:09:01.083Z,19
2022-12-13T03:10:01.084Z,17
2022-12-13T03:11:01.079Z,16
2022-12-13T03:12:01.081Z,15
2022-12-13T03:13:01.112Z,14
2022-12-13T03:14:01.094Z,16
2022-12-13T03:15:01.115Z,16
2022-12-13T03:16:01.104Z,18
2022-12-13T03:17:01.082Z,21
2022-12-13T03:18:01.119Z,20
2022-12-13T03:19:01.085Z,19
2022-12-13T03:21:01.078Z,18
2022-12-13T03:22:01.091Z,16
2022-12-13T03:23:01.084Z,17
2022-12-13T03:25:01.145Z,19
2022-12-13T03:26:01.084Z,18
2022-12-13T03:27:01.084Z,16
2022-12-13T03:30:01.114Z,14
2022-12-13T03:31:01.137Z,15
2022-12-13T03:32:01.085Z,18
2022-12-13T03:33:01.087Z,17
2022-12-13T03:36:01.087Z,18
2022-12-13T03:37:01.089Z,15
2022-12-13T03:39:01.086Z,14
2022-12-13T03:40:01.141Z,15
2022-12-13T03:41:01.112Z,12
2022-12-13T03:42:01.094Z,14
2022-12-13T03:43:01.092Z,16
2022-12-13T03:44:01.096Z,17
2022-12-13T03:45:01.091Z,17
2022-12-13T03:46:01.169Z,16
2022-12-13T03:47:01.095Z,15
2022-12-13T03:48:01.094Z,16
2022-12-13T03:49:01.095Z,15
2022-12-13T03:50:07.332Z,16
2022-12-13T03:51:01.073Z,18
2022-12-13T03:52:01.093Z,17
2022-12-13T03:53:01.093Z,16
2022-12-13T03:54:01.093Z,15
2022-12-13T03:55:01.090Z,14
2022-12-13T03:56:01.423Z,13
2022-12-13T03:57:01.114Z,14
2022-12-13T03:58:06.237Z,15
2022-12-13T04:00:01.125Z,16
2022-12-13T04:02:01.146Z,17
2022-12-13T04:03:01.126Z,16
2022-12-13T04:04:01.093Z,17
2022-12-13T04:05:01.092Z,16
2022-12-13T04:07:01.092Z,15
2022-12-13T04:10:01.138Z,18
2022-12-13T04:11:01.101Z,17
2022-12-13T04:13:01.249Z,19
2022-12-13T04:15:01.142Z,18
2022-12-13T04:16:01.162Z,20
2022-12-13T04:17:01.095Z,21
2022-12-13T04:19:01.099Z,19
2022-12-13T04:20:01.133Z,17
2022-12-13T04:21:01.095Z,18
2022-12-13T04:22:01.096Z,19
2022-12-13T04:23:01.096Z,17
2022-12-13T04:24:01.337Z,20
2022-12-13T04:25:01.131Z,21
2022-12-13T04:26:01.096Z,19
2022-12-13T04:27:01.170Z,18
2022-12-13T04:28:01.093Z,20
2022-12-13T04:29:01.140Z,18
2022-12-13T04:30:01.151Z,18
2022-12-13T04:31:01.098Z,17
2022-12-13T04:32:01.102Z,14
2022-12-13T04:33:01.097Z,15
2022-12-13T04:34:01.104Z,16
2022-12-13T04:35:01.704Z,15
2022-12-13T04:37:01.098Z,17
2022-12-13T04:38:01.098Z,15
2022-12-13T04:40:01.394Z,16
2022-12-13T04:42:01.098Z,17
2022-12-13T04:43:01.121Z,19
2022-12-13T04:44:01.102Z,18
2022-12-13T04:45:01.179Z,17
2022-12-13T04:46:01.135Z,16
2022-12-13T04:49:01.104Z,18
2022-12-13T04:53:01.237Z,16
2022-12-13T04:54:04.183Z,17
2022-12-13T04:55:01.113Z,19
2022-12-13T04:56:01.106Z,20
2022-12-13T04:57:01.103Z,19
2022-12-13T04:58:01.107Z,20
2022-12-13T05:00:01.169Z,19
2022-12-13T05:01:01.309Z,18
2022-12-13T05:03:01.170Z,17
2022-12-13T05:04:01.104Z,16
2022-12-13T05:05:01.139Z,15
2022-12-13T05:06:01.104Z,17
2022-12-13T05:10:01.089Z,19
2022-12-13T05:11:01.092Z,18
2022-12-13T05:12:02.101Z,15
2022-12-13T05:13:01.095Z,16
2022-12-13T05:15:01.154Z,14
2022-12-13T05:17:01.192Z,15
2022-12-13T05:18:01.090Z,16
2022-12-13T05:19:01.100Z,14
2022-12-13T05:20:01.089Z,15
2022-12-13T05:21:01.092Z,16
2022-12-13T05:23:01.224Z,15
2022-12-13T05:24:01.093Z,18
2022-12-13T05:25:01.128Z,17
2022-12-13T05:27:01.105Z,16
2022-12-13T05:28:01.095Z,17
2022-12-13T05:29:01.093Z,15
2022-12-13T05:30:02.631Z,17
2022-12-13T05:31:01.096Z,16
2022-12-13T05:32:01.148Z,18
2022-12-13T05:35:01.178Z,19
2022-12-13T05:36:02.234Z,20
2022-12-13T05:38:01.090Z,19
2022-12-13T05:39:01.096Z,20
2022-12-13T05:40:01.586Z,18
2022-12-13T05:41:01.090Z,19
2022-12-13T05:42:02.509Z,17
2022-12-13T05:43:02.040Z,19
2022-12-13T05:44:01.092Z,18
2022-12-13T05:45:01.129Z,17
2022-12-13T05:46:01.167Z,16
2022-12-13T05:47:01.776Z,17
2022-12-13T05:48:01.099Z,15
2022-12-13T05:49:01.095Z,16
2022-12-13T05:54:01.254Z,17
2022-12-13T05:55:01.456Z,16
2022-12-13T05:56:01.098Z,14
2022-12-13T05:57:01.098Z,15
2022-12-13T05:58:02.213Z,16
2022-12-13T05:59:01.099Z,13
2022-12-13T06:00:01.135Z,15
2022-12-13T06:01:01.100Z,16
2022-12-13T06:02:01.174Z,17
2022-12-13T06:03:01.699Z,16
2022-12-13T06:04:01.099Z,17
2022-12-13T06:08:01.140Z,16
2022-12-13T06:09:01.252Z,17
2022-12-13T06:11:10.600Z,16
2022-12-13T06:12:01.577Z,17
2022-12-13T06:13:01.544Z,18
2022-12-13T06:14:01.493Z,17
2022-12-13T06:15:01.673Z,16
2022-12-13T06:16:01.939Z,18
2022-12-13T06:17:01.154Z,17
2022-12-13T06:19:04.455Z,18
2022-12-13T06:20:01.132Z,17
2022-12-13T06:23:01.160Z,16
2022-12-13T06:24:01.104Z,15
2022-12-13T06:25:01.122Z,16
2022-12-13T06:27:01.121Z,18
2022-12-13T06:28:01.559Z,20
2022-12-13T06:30:02.736Z,19
2022-12-13T06:32:03.251Z,15
2022-12-13T06:33:01.098Z,13
2022-12-13T06:34:01.092Z,14
2022-12-13T06:35:01.125Z,15
2022-12-13T06:38:02.087Z,16
2022-12-13T06:39:01.094Z,14
2022-12-13T06:40:01.340Z,12
2022-12-13T06:42:01.094Z,13
2022-12-13T06:44:01.248Z,15
2022-12-13T06:45:01.088Z,15
2022-12-13T06:46:01.119Z,16
2022-12-13T06:47:09.959Z,17
2022-12-13T06:48:01.093Z,19
2022-12-13T06:49:01.093Z,20
2022-12-13T06:51:01.096Z,21
2022-12-13T06:52:01.100Z,20
2022-12-13T06:54:01.174Z,17
2022-12-13T06:55:01.123Z,18
2022-12-13T06:56:01.103Z,16
2022-12-13T06:59:02.107Z,18
2022-12-13T07:00:01.159Z,16
2022-12-13T07:01:01.118Z,18
2022-12-13T07:02:03.104Z,16
2022-12-13T07:04:01.158Z,15
2022-12-13T07:06:01.098Z,13
2022-12-13T07:07:02.280Z,14
2022-12-13T07:09:01.101Z,16
2022-12-13T07:10:01.136Z,18
2022-12-13T07:11:01.100Z,20
2022-12-13T07:12:01.108Z,19
2022-12-13T07:13:01.188Z,20
2022-12-13T07:14:01.099Z,18
2022-12-13T07:16:01.419Z,17
2022-12-13T07:18:01.086Z,15
2022-12-13T07:23:01.149Z,16
2022-12-13T07:24:01.083Z,15
2022-12-13T07:25:01.084Z,16
2022-12-13T07:27:01.081Z,14
2022-12-13T07:29:01.086Z,15
2022-12-13T07:30:01.083Z,15
2022-12-13T07:31:01.149Z,17
2022-12-13T07:32:02.152Z,18
2022-12-13T07:35:01.145Z,17
2022-12-13T07:36:01.091Z,16
2022-12-13T07:37:01.085Z,17
2022-12-13T07:38:01.083Z,18
2022-12-13T07:39:01.080Z,19
2022-12-13T07:41:01.132Z,18
2022-12-13T07:42:01.083Z,16
2022-12-13T07:43:01.081Z,15
2022-12-13T07:45:01.081Z,14
2022-12-13T07:46:01.121Z,17
2022-12-13T07:48:01.108Z,16
2022-12-13T07:49:01.523Z,15
2022-12-13T07:50:01.445Z,17
2022-12-13T07:51:01.080Z,14
2022-12-13T07:53:01.144Z,16
2022-12-13T07:54:01.083Z,18
2022-12-13T07:55:01.084Z,16
2022-12-13T07:56:01.081Z,17
2022-12-13T07:57:04.315Z,18
2022-12-13T07:58:01.084Z,17
2022-12-13T07:59:01.091Z,18
2022-12-13T08:00:01.084Z,18
2022-12-13T08:01:01.128Z,17
2022-12-13T08:02:01.707Z,19
2022-12-13T08:07:01.305Z,18
2022-12-13T08:08:01.098Z,16
2022-12-13T08:09:01.104Z,17
2022-12-13T08:10:01.091Z,18
2022-12-13T08:11:01.510Z,17
2022-12-13T08:12:01.205Z,16
2022-12-13T08:13:01.087Z,17
2022-12-13T08:14:01.088Z,16
2022-12-13T08:15:01.087Z,16
2022-12-13T08:17:01.118Z,18
2022-12-13T08:18:01.088Z,19
2022-12-13T08:19:04.187Z,17
2022-12-13T08:20:01.089Z,16
2022-12-13T08:21:01.091Z,15
2022-12-13T08:22:01.907Z,14
2022-12-13T08:24:01.181Z,15
2022-12-13T08:26:01.090Z,17
2022-12-13T08:28:02.032Z,15
2022-12-13T08:30:01.092Z,16
2022-12-13T08:31:01.108Z,17
2022-12-13T08:32:01.480Z,16
2022-12-13T08:33:04.971Z,19
2022-12-13T08:35:01.094Z,20
2022-12-13T08:36:01.096Z,21
2022-12-13T08:37:01.315Z,20
2022-12-13T08:38:01.242Z,18
2022-12-13T08:39:01.093Z,16
2022-12-13T08:40:01.092Z,13
2022-12-13T08:42:01.108Z,14
2022-12-13T08:44:01.083Z,16
2022-12-13T08:45:01.094Z,16
2022-12-13T08:46:01.467Z,15
2022-12-13T08:47:01.127Z,16
2022-12-13T08:49:01.127Z,18
2022-12-13T08:50:01.637Z,19
2022-12-13T08:51:01.104Z,18
2022-12-13T08:53:01.228Z,19
2022-12-13T08:55:01.098Z,18
2022-12-13T08:58:01.258Z,19
2022-12-13T08:59:01.100Z,17
2022-12-13T09:00:01.099Z,16
2022-12-13T09:01:01.122Z,17
2022-12-13T09:02:04.911Z,16
2022-12-13T09:03:01.161Z,15
2022-12-13T09:05:01.220Z,16
2022-12-13T09:06:01.102Z,17
2022-12-13T09:07:01.352Z,18
2022-12-13T09:08:01.131Z,17
2022-12-13T09:10:07.452Z,18
2022-12-13T09:11:01.083Z,16
2022-12-13T09:12:01.101Z,17
2022-12-13T09:15:01.985Z,15
2022-12-13T09:16:01.361Z,16
2022-12-13T09:17:01.107Z,15
2022-12-13T09:18:04.169Z,14
2022-12-13T09:20:01.123Z,16
2022-12-13T09:21:10.363Z,15
2022-12-13T09:24:02.253Z,16
2022-12-13T09:25:02.317Z,15
2022-12-13T09:26:05.052Z,16
2022-12-13T09:27:01.103Z,17
2022-12-13T09:30:01.089Z,17
2022-12-13T09:31:01.088Z,16
2022-12-13T09:33:17.506Z,15
2022-12-13T09:35:01.070Z,14
2022-12-13T09:38:01.120Z,15
2022-12-13T09:39:01.091Z,14
2022-12-13T09:40:15.814Z,16
2022-12-13T09:41:01.070Z,17
2022-12-13T09:42:01.813Z,18
2022-12-13T09:43:12.924Z,16
2022-12-13T09:45:03.652Z,15
2022-12-13T09:47:01.476Z,13
2022-12-13T09:52:10.349Z,15
2022-12-13T09:55:01.669Z,14
2022-12-13T09:56:10.150Z,15
2022-12-13T09:57:01.097Z,13
2022-12-13T10:00:01.547Z,15
2022-12-13T10:02:01.129Z,16
2022-12-13T10:04:01.161Z,17
2022-12-13T10:08:01.102Z,18
2022-12-13T10:10:01.099Z,17
2022-12-13T10:11:01.337Z,18
2022-12-13T10:12:01.135Z,17
2022-12-13T10:13:01.096Z,18
2022-12-13T10:15:01.096Z,20
2022-12-13T10:16:02.354Z,19
2022-12-13T10:18:01.096Z,18
2022-12-13T10:19:01.093Z,19
2022-12-13T10:20:01.099Z,17
2022-12-13T10:21:01.094Z,19
2022-12-13T10:22:05.558Z,18
2022-12-13T10:24:23.964Z,19
2022-12-13T10:25:01.183Z,20
2022-12-13T10:26:02.719Z,19
2022-12-13T10:29:01.120Z,18
2022-12-13T10:30:01.094Z,16
2022-12-13T10:33:01.138Z,18
2022-12-13T10:34:01.095Z,17
2022-12-13T10:37:01.161Z,15
2022-12-13T10:38:01.094Z,14
2022-12-13T10:43:01.234Z,15
2022-12-13T10:44:01.094Z,17
2022-12-13T10:45:01.120Z,15
2022-12-13T10:46:01.203Z,16
2022-12-13T10:47:01.096Z,15
2022-12-13T10:48:04.123Z,14
2022-12-13T10:49:01.094Z,12
2022-12-13T10:50:01.092Z,13
2022-12-13T10:51:01.201Z,12
2022-12-13T10:53:01.125Z,13
2022-12-13T10:55:01.193Z,14
2022-12-13T10:58:01.087Z,16
2022-12-13T10:59:01.080Z,17
2022-12-13T11:01:01.143Z,20
2022-12-13T11:03:01.147Z,19
2022-12-13T11:07:01.084Z,19
2022-12-13T11:08:01.112Z,18
2022-12-13T11:09:01.466Z,19
2022-12-13T11:11:01.083Z,18
2022-12-13T11:12:01.082Z,17
2022-12-13T11:13:01.085Z,18
2022-12-13T11:14:01.085Z,17
2022-12-13T11:15:01.092Z,17
2022-12-13T11:16:01.080Z,18
2022-12-13T11:18:01.111Z,17
2022-12-13T11:19:01.137Z,16
2022-12-13T11:20:01.084Z,17
2022-12-13T11:21:01.084Z,15
2022-12-13T11:23:01.151Z,14
2022-12-13T11:26:01.084Z,15
2022-12-13T11:27:01.089Z,17
2022-12-13T11:28:01.096Z,19
2022-12-13T11:30:01.090Z,17
2022-12-13T11:31:01.286Z,15
2022-12-13T11:32:01.195Z,14
2022-12-13T11:35:01.120Z,17
2022-12-13T11:37:01.099Z,16
2022-12-13T11:39:01.091Z,17
2022-12-13T11:42:01.093Z,18
2022-12-13T11:43:01.092Z,19
2022-12-13T11:44:01.097Z,17
2022-12-13T11:45:01.096Z,17
2022-12-13T11:47:01.096Z,16
2022-12-13T11:48:01.098Z,15
2022-12-13T11:51:01.125Z,16
2022-12-13T11:53:01.106Z,17
2022-12-13T11:55:01.095Z,18
2022-12-13T11:56:01.102Z,17
2022-12-13T11:57:01.197Z,18
2022-12-13T11:58:01.165Z,17
2022-12-13T12:00:02.133Z,17
2022-12-13T12:01:01.100Z,16
2022-12-13T12:02:04.764Z,14
2022-12-13T12:03:01.296Z,12
2022-12-13T12:07:12.303Z,14
2022-12-13T12:26:00.969Z,20
2022-12-13T12:27:00.952Z,17
2022-12-13T12:30:00.931Z,17
2022-12-13T12:31:00.981Z,18
2022-12-13T12:32:01.009Z,19
2022-12-13T12:38:01.018Z,17
2022-12-13T12:39:01.179Z,18
2022-12-13T12:40:00.850Z,17
2022-12-13T12:41:15.889Z,16
2022-12-13T12:42:01.389Z,14
2022-12-13T12:43:16.679Z,17
2022-12-13T12:44:00.866Z,16
2022-12-13T12:45:00.858Z,17
2022-12-13T13:06:02.519Z,19
2022-12-13T13:07:01.293Z,16
2022-12-13T13:08:01.097Z,15
2022-12-13T13:09:01.094Z,16
2022-12-13T13:10:16.064Z,17
2022-12-13T13:11:01.832Z,15
2022-12-13T13:12:01.095Z,17
2022-12-13T13:13:11.818Z,19
2022-12-13T13:14:01.467Z,18
2022-12-13T13:15:01.095Z,19
2022-12-13T13:16:01.137Z,20
2022-12-13T13:17:01.096Z,17
2022-12-13T13:18:01.095Z,16
2022-12-13T13:19:01.091Z,14
2022-12-13T13:20:09.779Z,13
2022-12-13T13:21:01.129Z,15
2022-12-13T13:22:02.196Z,16
2022-12-13T13:23:39.223Z,17
2022-12-13T13:24:01.077Z,19
2022-12-13T13:26:23.000Z,20
2022-12-13T13:27:01.063Z,19
2022-12-13T13:28:01.088Z,18
2022-12-13T13:30:01.081Z,17
2022-12-13T13:31:01.131Z,16
2022-12-13T13:32:02.071Z,14
2022-12-13T13:33:01.096Z,16
2022-12-13T13:35:01.078Z,15
2022-12-13T13:36:01.082Z,17
2022-12-13T13:37:01.082Z,19
2022-12-13T13:38:01.107Z,18
2022-12-13T13:40:01.085Z,19
2022-12-13T13:41:01.083Z,18
2022-12-13T13:42:01.088Z,16
2022-12-13T13:43:01.103Z,15
2022-12-13T13:44:01.084Z,16
2022-12-13T13:45:01.086Z,16
2022-12-13T13:48:01.087Z,17
2022-12-13T13:49:01.086Z,15
2022-12-13T13:50:02.209Z,16
2022-12-13T13:52:24.674Z,17
2022-12-13T13:53:01.065Z,18
2022-12-13T13:54:01.110Z,19
2022-12-13T13:55:01.085Z,17
2022-12-13T13:58:10.365Z,16
2022-12-13T14:00:01.114Z,17
2022-12-13T14:02:01.611Z,16
2022-12-13T14:03:01.159Z,18
2022-12-13T14:04:01.264Z,16
2022-12-13T14:05:01.085Z,17
2022-12-13T14:06:01.158Z,16
2022-12-13T14:07:01.240Z,15
2022-12-13T14:08:01.088Z,14
2022-12-13T14:09:01.147Z,15
2022-12-13T14:10:01.140Z,14
2022-12-13T14:11:01.225Z,13
2022-12-13T14:14:01.225Z,14
2022-12-13T14:15:01.535Z,15
2022-12-13T14:16:01.128Z,17
2022-12-13T14:17:01.085Z,18
2022-12-13T14:20:01.165Z,19
2022-12-13T14:22:01.084Z,18
2022-12-13T14:23:01.089Z,17
2022-12-13T14:25:01.093Z,16
2022-12-13T14:28:01.114Z,18
2022-12-13T14:30:01.093Z,20
2022-12-13T14:31:01.078Z,18
2022-12-13T14:32:01.229Z,19
2022-12-13T14:34:01.154Z,18
2022-12-13T14:35:25.137Z,17
2022-12-13T14:36:01.071Z,16
2022-12-13T14:41:01.096Z,17
2022-12-13T14:42:01.099Z,16
2022-12-13T14:43:01.089Z,17
2022-12-13T14:44:01.115Z,18
2022-12-13T14:45:01.093Z,18
2022-12-13T14:47:01.184Z,17
2022-12-13T14:48:01.094Z,15
2022-12-13T14:49:03.787Z,16
2022-12-13T14:50:01.093Z,14
2022-12-13T14:51:01.092Z,15
2022-12-13T14:53:01.157Z,16
2022-12-13T14:56:01.093Z,15
2022-12-13T14:57:01.102Z,16
2022-12-13T14:59:01.095Z,17
2022-12-13T15:00:01.123Z,18
2022-12-13T15:01:01.170Z,17
2022-12-13T15:04:01.261Z,16
2022-12-13T15:05:01.100Z,15
2022-12-13T15:06:01.099Z,16
2022-12-13T15:07:01.098Z,17
2022-12-13T15:12:15.128Z,15
2022-12-13T15:15:01.089Z,15
2022-12-13T15:16:01.275Z,14
2022-12-13T15:18:01.100Z,15
2022-12-13T15:19:01.744Z,14
2022-12-13T15:21:01.085Z,13
2022-12-13T15:22:02.246Z,15
2022-12-13T15:24:01.153Z,14
2022-12-13T15:26:01.094Z,15
2022-12-13T15:27:01.084Z,14
2022-12-13T15:28:01.086Z,15
2022-12-13T15:29:01.265Z,17
2022-12-13T15:30:01.086Z,17
2022-12-13T15:33:01.251Z,16
2022-12-13T15:34:01.485Z,14
2022-12-13T15:35:01.083Z,15
2022-12-13T15:36:01.086Z,14
2022-12-13T15:37:01.230Z,16
2022-12-13T15:38:01.150Z,15
2022-12-13T15:39:01.096Z,16
2022-12-13T15:41:01.093Z,17
2022-12-13T15:42:01.150Z,16
2022-12-13T15:43:01.153Z,17
2022-12-13T15:44:01.151Z,18
2022-12-13T15:45:01.153Z,18
2022-12-13T15:47:01.088Z,17
2022-12-13T15:48:01.154Z,16
2022-12-13T15:49:01.115Z,17
2022-12-13T15:52:01.155Z,18
2022-12-13T15:53:01.089Z,17
2022-12-13T15:54:01.154Z,16
2022-12-13T15:55:01.091Z,17
2022-12-13T15:57:01.153Z,18
2022-12-13T15:58:01.150Z,17
2022-12-13T15:59:01.149Z,18
2022-12-13T16:00:01.160Z,18
2022-12-13T16:01:01.184Z,17
2022-12-13T16:02:01.158Z,15
2022-12-13T16:03:01.203Z,17
2022-12-13T16:04:01.153Z,14
2022-12-13T16:08:13.659Z,15
2022-12-13T16:09:01.153Z,17
2022-12-13T16:10:01.089Z,16
2022-12-13T16:11:01.239Z,17
2022-12-13T16:13:01.226Z,16
2022-12-13T16:15:09.397Z,17
2022-12-13T16:16:09.093Z,16
2022-12-13T16:18:01.118Z,17
2022-12-13T16:19:01.159Z,16
2022-12-13T16:20:06.112Z,15
2022-12-13T16:21:01.170Z,16
2022-12-13T16:22:01.138Z,18
2022-12-13T16:23:01.157Z,17
2022-12-13T16:24:01.118Z,18
2022-12-13T16:26:05.666Z,17
2022-12-13T16:27:01.216Z,14
2022-12-13T16:29:01.163Z,16
2022-12-13T16:30:01.169Z,15
2022-12-13T16:31:01.095Z,16
2022-12-13T16:32:01.710Z,17
2022-12-13T16:33:18.450Z,18
2022-12-13T16:34:01.147Z,14
2022-12-13T16:35:01.100Z,15
2022-12-13T16:36:01.163Z,13
2022-12-13T16:37:01.140Z,14
2022-12-13T16:40:01.185Z,16
2022-12-13T16:41:08.159Z,15
2022-12-13T16:42:01.248Z,16
2022-12-13T16:44:01.228Z,17
2022-12-13T16:45:32.674Z,16
2022-12-13T16:46:01.140Z,18
2022-12-13T16:47:11.182Z,17
2022-12-13T16:48:01.185Z,18
2022-12-13T16:49:01.170Z,17
2022-12-13T16:52:01.271Z,19
2022-12-13T16:53:01.166Z,18
2022-12-13T16:54:01.167Z,19
2022-12-13T16:55:01.162Z,18
2022-12-13T16:56:01.196Z,17
2022-12-13T16:57:01.221Z,16
2022-12-13T16:59:01.169Z,15
2022-12-13T17:01:02.173Z,16
2022-12-13T17:03:01.175Z,17
2022-12-13T17:04:03.199Z,18
2022-12-13T17:05:01.087Z,19
2022-12-13T17:06:01.086Z,18
2022-12-13T17:07:01.081Z,19
2022-12-13T17:08:01.114Z,18
2022-12-13T17:09:01.086Z,17
2022-12-13T17:10:01.092Z,18
2022-12-13T17:12:01.121Z,19
2022-12-13T17:14:01.151Z,21
2022-12-13T17:15:01.088Z,19
2022-12-13T17:18:01.119Z,17
2022-12-13T17:19:01.085Z,15
2022-12-13T17:20:01.225Z,16
2022-12-13T17:21:01.089Z,17
2022-12-13T17:22:01.090Z,15
2022-12-13T17:23:01.116Z,14
2022-12-13T17:25:01.092Z,12
2022-12-13T17:26:01.092Z,14
2022-12-13T17:27:01.100Z,16
2022-12-13T17:28:01.146Z,19
2022-12-13T17:30:01.159Z,21
2022-12-13T17:31:01.168Z,19
2022-12-13T17:32:01.096Z,16
2022-12-13T17:33:01.121Z,15
2022-12-13T17:34:01.092Z,16
2022-12-13T17:35:01.091Z,18
2022-12-13T17:38:01.120Z,19
2022-12-13T17:39:01.091Z,17
2022-12-13T17:40:01.155Z,16
2022-12-13T17:41:01.092Z,15
2022-12-13T17:42:01.159Z,17
2022-12-13T17:43:01.127Z,16
2022-12-13T17:44:01.204Z,18
2022-12-13T17:45:01.159Z,18
2022-12-13T17:47:01.093Z,17
2022-12-13T17:49:01.203Z,15
2022-12-13T17:50:01.166Z,14
2022-12-13T17:51:01.096Z,13
2022-12-13T17:52:01.090Z,14
2022-12-13T17:55:01.158Z,16
2022-12-13T17:56:01.096Z,17
2022-12-13T17:58:04.528Z,15
2022-12-13T17:59:01.101Z,16
2022-12-13T18:00:01.219Z,14
2022-12-13T18:01:01.139Z,13
2022-12-13T18:02:01.163Z,14
2022-12-13T18:04:01.345Z,17
2022-12-13T18:05:01.161Z,16
2022-12-13T18:06:01.098Z,17
2022-12-13T18:09:01.243Z,16
2022-12-13T18:12:01.163Z,15
2022-12-13T18:13:01.126Z,14
2022-12-13T18:15:01.113Z,14
2022-12-13T18:16:01.155Z,13
2022-12-13T18:18:11.003Z,15
2022-12-13T18:20:01.164Z,16
2022-12-13T18:21:01.100Z,18
2022-12-13T18:22:01.099Z,17
2022-12-13T18:23:01.143Z,16
2022-12-13T18:25:01.097Z,15
2022-12-13T18:26:01.098Z,14
2022-12-13T18:27:01.101Z,15
2022-12-13T18:30:01.375Z,15
2022-12-13T18:32:01.259Z,16
2022-12-13T18:36:01.232Z,17
2022-12-13T18:37:01.231Z,19
2022-12-13T18:39:01.145Z,20
2022-12-13T18:40:01.101Z,19
2022-12-13T18:41:01.103Z,17
2022-12-13T18:42:01.163Z,15
2022-12-13T18:43:01.106Z,14
2022-12-13T18:44:01.137Z,12
2022-12-13T18:45:01.231Z,15
2022-12-13T18:49:01.121Z,17
2022-12-13T18:50:01.091Z,18
2022-12-13T18:53:01.155Z,17
2022-12-13T18:56:01.090Z,16
2022-12-13T18:57:01.092Z,15
2022-12-13T18:59:01.108Z,14
2022-12-13T19:00:01.141Z,13
2022-12-13T19:01:01.094Z,12
2022-12-13T19:02:01.137Z,13
2022-12-13T19:03:01.159Z,14
2022-12-13T19:05:01.161Z,17
2022-12-13T19:06:01.099Z,18
2022-12-13T19:13:01.272Z,17
2022-12-13T19:15:01.154Z,15
2022-12-13T19:16:01.258Z,13
2022-12-13T19:19:01.170Z,12
2022-12-13T19:20:01.190Z,15
2022-12-13T19:21:01.219Z,14
2022-12-13T19:22:01.303Z,15
2022-12-13T19:24:01.502Z,16
2022-12-13T19:25:01.148Z,15
2022-12-13T19:26:01.181Z,16
2022-12-13T19:29:01.163Z,15
2022-12-13T19:30:01.358Z,16
2022-12-13T19:31:01.242Z,15
2022-12-13T19:32:01.224Z,17
2022-12-13T19:33:01.158Z,16
2022-12-13T19:34:01.093Z,19
2022-12-13T19:35:01.200Z,18
2022-12-13T19:38:01.181Z,17
2022-12-13T19:39:01.150Z,16
2022-12-13T19:40:01.120Z,18
2022-12-13T19:42:01.093Z,17
2022-12-13T19:43:01.096Z,16
2022-12-13T19:44:01.089Z,17
2022-12-13T19:45:01.132Z,16
2022-12-13T19:47:01.191Z,17
2022-12-13T19:48:01.172Z,19
2022-12-13T19:49:01.182Z,20
2022-12-13T19:50:01.122Z,18
2022-12-13T19:51:01.092Z,19
2022-12-13T19:52:01.093Z,17
2022-12-13T19:53:01.155Z,15
2022-12-13T19:55:01.255Z,16
2022-12-13T19:56:01.160Z,15
2022-12-13T20:00:01.229Z,15
2022-12-13T20:01:01.217Z,18
2022-12-13T20:02:01.297Z,16
2022-12-13T20:03:01.183Z,17
2022-12-13T20:04:01.243Z,16
2022-12-13T20:06:01.086Z,15
2022-12-13T20:07:01.187Z,16
2022-12-13T20:08:01.153Z,17
2022-12-13T20:09:01.244Z,18
2022-12-13T20:11:01.323Z,17
2022-12-13T20:12:01.090Z,16
2022-12-13T20:13:01.087Z,15
2022-12-13T20:14:01.087Z,16
2022-12-13T20:15:01.084Z,18
2022-12-13T20:16:01.154Z,19
2022-12-13T20:17:01.086Z,20
2022-12-13T20:20:01.203Z,19
2022-12-13T20:22:01.087Z,17
2022-12-13T20:23:01.088Z,16
2022-12-13T20:24:01.086Z,14
2022-12-13T20:25:01.087Z,13
2022-12-13T20:26:01.086Z,15
2022-12-13T20:27:01.112Z,16
2022-12-13T20:29:01.093Z,18
2022-12-13T20:30:01.089Z,17
2022-12-13T20:31:01.155Z,18
2022-12-13T20:33:01.151Z,20
2022-12-13T20:34:01.087Z,19
2022-12-13T20:35:01.087Z,18
2022-12-13T20:36:23.455Z,16
2022-12-13T20:37:01.069Z,14
2022-12-13T20:39:01.088Z,17
2022-12-13T20:40:01.089Z,18
2022-12-13T20:41:01.087Z,20
2022-12-13T20:42:01.086Z,21
2022-12-13T20:43:01.116Z,19
2022-12-13T20:44:01.219Z,17
2022-12-13T20:45:01.087Z,18
2022-12-13T20:46:01.087Z,17